ORER/EBL METAR and TAF weather

Enter ICAO airport designator
Station Type Date Time Source
ORER METAR 2019/06/19 02:00 UTC NOAA

ORER 190200Z 19002KT 8000 NSC 22/09 Q1008 NOSIG


Station Type Date Time Source
ORER Decoded METAR 2019/06/19 02:00 UTC NOAA

Station name not available
Jun 18, 2019 - 10:00 PM EDT / 2019.06.19 0200 UTC
Wind: from the S (190 degrees) at 2 MPH (2 KT):0
Visibility: 4 mile(s):0
Temperature: 71 F (22 C)
Dew Point: 48 F (9 C)
Relative Humidity: 43%
Pressure (altimeter): 29.77 in. Hg (1008 hPa)
ob: ORER 190200Z 19002KT 8000 NSC 22/09 Q1008 NOSIG
cycle: 2

Station Type Date Time Source
ORER TAF 2019/06/19 00:05 UTC NOAA

TAF ORER 182200Z 1900/1924 VRB03KT 8000 NSC

Example: see airport list